Airfield :
LOGIN :

Register | Disclaimer

   EN    FR    IT 

 










Legend :    VFR   Marginal VFR   IFR   Intensive IFR   Very Intensive IFR
Visi :
Ceiling :
>= 8 km
>= 3000ft
5 to 8 km
1000 to 3000 ft
1500m to 5 km
500 to 1000 ft
800 to 1500m
200 to 500 ft
< 800m
< 200 ft
Symbols :   Thunderstorms  Fog  Heavy snow  Heavy precipitations  Wind > 20 kt
SIGMETs :     Misc.  Thunderstorms  Icing  Turbulence  Mountain Waves  Volcanic Ashes






- Airport Elevation : 195 ft


LFMY - Salon de Provence

CURRENT METAR :
  • 040200Z AUTO VRB03KT CAVOK 02/M00 Q1017

EXPIRED METARs :
  • 040130Z AUTO 05001KT CAVOK 03/M00 Q1017
  • 040100Z AUTO VRB01KT CAVOK 03/M01 Q1017
  • 040030Z AUTO 00000KT CAVOK 04/M01 Q1016
  • 040000Z AUTO 00000KT CAVOK 05/M00 Q1016
  • 032330Z AUTO VRB02KT CAVOK 06/M01 Q1016

TAF TAF LFMY
Valid from the 03 at 09:00 until the 04 at 09:00 UTC


030800Z 0309/0409 34012KT CAVOK
BECMG 0320/0322 VRB02KT
BECMG 0407/0409 19010KT



MET'MAP, your aeronautical weather chart ! - Copyright ORBIFLY December 2007 - Disclaimer

ORBIFLY MET'MAP TEAM :

Programming & Development : Alexandra Zaïnal
Concept & original design : Baudouin d'Aumeries
Assistance for programming : Marc-Olivier Méhu
Technical & hardware support : Manuel Goepfert

Contact : metmap@orbifly.com




SOURCES & CREDITS :

   NOAA